Time;durP1;ratioP1;P1;durP2;ratioP2;P2;SDS_P1;SDS_P2;PMS_P1;PMS_P2;Temp;Humidity;BMP_temperature;BMP_pressure;BME280_temperature;BME280_humidity;BME280_pressure;Samples;Min_cycle;Max_cycle;Signal;HPM_P1;HPM_P2
2022/11/11 00:00:23;;;;;;;7.27;6.53;;;6.30;99.90;;;;;;6200493;28;20821;-61
2022/11/11 00:03:26;;;;;;;8.20;7.20;;;6.30;99.90;;;;;;6179395;28;20478;-62
2022/11/11 00:06:30;;;;;;;8.97;8.13;;;6.30;99.90;;;;;;6175978;28;20474;-62
2022/11/11 00:09:34;;;;;;;8.03;6.93;;;6.20;99.90;;;;;;6176269;28;20481;-62
2022/11/11 00:12:39;;;;;;;9.93;8.00;;;6.20;99.90;;;;;;6176095;28;20473;-61
2022/11/11 00:15:42;;;;;;;8.10;7.30;;;6.20;99.90;;;;;;6175974;28;20488;-61
2022/11/11 00:25:40;;;;;;;8.17;7.23;;;6.30;99.90;;;;;;6178463;28;20552;-62
2022/11/11 00:28:44;;;;;;;9.13;7.93;;;6.20;99.90;;;;;;6200047;28;20477;-60
2022/11/11 00:38:45;;;;;;;13.53;12.13;;;6.10;99.90;;;;;;6185867;28;21299;-61
2022/11/11 00:41:48;;;;;;;18.07;15.47;;;6.00;99.90;;;;;;6190709;28;20470;-61
2022/11/11 00:44:53;;;;;;;16.40;14.80;;;5.90;99.90;;;;;;6185622;28;20477;-60
2022/11/11 00:51:16;;;;;;;15.83;14.23;;;5.80;99.90;;;;;;6185884;28;21004;-60
2022/11/11 00:54:20;;;;;;;18.33;15.00;;;5.70;99.90;;;;;;6185833;28;20477;-60
2022/11/11 00:57:23;;;;;;;16.80;15.27;;;5.60;99.90;;;;;;6188271;28;20492;-60
2022/11/11 01:00:27;;;;;;;16.70;15.10;;;5.50;99.90;;;;;;6189351;28;20890;-60
2022/11/11 01:03:30;;;;;;;15.70;14.30;;;5.40;99.90;;;;;;6192344;28;20473;-60
2022/11/11 01:06:34;;;;;;;16.07;14.57;;;5.40;99.90;;;;;;6190950;28;20504;-60
2022/11/11 01:09:37;;;;;;;17.80;16.10;;;5.40;99.90;;;;;;6190182;28;20473;-60
2022/11/11 01:12:40;;;;;;;17.17;13.70;;;5.40;99.90;;;;;;6190142;28;20816;-60
2022/11/11 01:15:47;;;;;;;18.17;16.30;;;5.30;99.90;;;;;;6191799;28;20488;-60
2022/11/11 01:18:51;;;;;;;17.57;14.73;;;5.20;99.90;;;;;;6189523;28;20434;-60
2022/11/11 01:21:54;;;;;;;15.67;14.37;;;5.30;99.90;;;;;;6191062;28;20441;-60
2022/11/11 01:24:58;;;;;;;17.50;15.90;;;5.30;99.90;;;;;;6189877;28;20532;-60
2022/11/11 01:28:01;;;;;;;16.70;15.00;;;5.20;99.90;;;;;;6198844;28;20441;-60
2022/11/11 01:31:07;;;;;;;15.93;14.40;;;5.20;99.90;;;;;;6203034;28;20473;-60
2022/11/11 01:34:11;;;;;;;15.10;13.80;;;5.20;99.90;;;;;;6202560;28;20835;-60
2022/11/11 01:37:14;;;;;;;14.53;13.03;;;5.30;99.90;;;;;;6202843;28;20468;-60
2022/11/11 01:40:17;;;;;;;14.00;12.70;;;5.30;99.90;;;;;;6202736;28;20476;-60
2022/11/11 01:43:23;;;;;;;13.40;12.20;;;5.30;99.90;;;;;;6203251;28;20483;-60
2022/11/11 01:46:37;;;;;;;16.47;14.77;;;5.40;99.90;;;;;;6203001;28;20484;-59
2022/11/11 01:49:48;;;;;;;16.73;15.17;;;5.40;99.90;;;;;;6202646;28;20477;-59
2022/11/11 01:52:51;;;;;;;15.00;13.60;;;5.30;99.90;;;;;;6202495;28;20477;-59
2022/11/11 01:55:55;;;;;;;16.13;14.63;;;5.30;99.90;;;;;;6202394;28;20535;-59
2022/11/11 01:59:03;;;;;;;13.40;12.10;;;5.30;99.90;;;;;;6202350;28;20488;-59
2022/11/11 02:02:15;;;;;;;13.07;11.87;;;5.30;99.90;;;;;;6202513;28;20484;-59
2022/11/11 02:08:43;;;;;;;12.07;11.17;;;5.30;99.90;;;;;;6201848;28;20485;-59
2022/11/11 02:15:08;;;;;;;11.20;10.03;;;5.40;99.90;;;;;;6201826;28;20836;-60
2022/11/11 02:18:12;;;;;;;13.33;12.10;;;5.40;99.90;;;;;;6201873;28;20481;-60
2022/11/11 02:21:21;;;;;;;15.40;14.00;;;5.30;99.90;;;;;;6196718;28;20496;-60
2022/11/11 02:24:27;;;;;;;14.70;13.30;;;5.20;99.90;;;;;;6201399;28;20504;-60
2022/11/11 02:27:34;;;;;;;14.20;13.00;;;5.10;99.90;;;;;;6201725;28;20476;-60
2022/11/11 02:30:37;;;;;;;12.93;11.83;;;5.10;99.90;;;;;;6201458;28;20779;-60
2022/11/11 02:33:40;;;;;;;13.67;12.37;;;5.10;99.90;;;;;;6201373;28;20508;-60
2022/11/11 02:36:44;;;;;;;13.13;12.10;;;5.20;99.90;;;;;;6201251;28;20484;-60
2022/11/11 02:39:52;;;;;;;14.10;12.87;;;5.20;99.90;;;;;;6200984;28;20536;-60
2022/11/11 02:43:11;;;;;;;15.17;13.97;;;5.20;99.90;;;;;;6201235;28;20479;-60
2022/11/11 02:46:14;;;;;;;13.37;12.27;;;5.10;99.90;;;;;;6200735;28;20491;-60
2022/11/11 02:49:17;;;;;;;12.87;11.67;;;5.00;99.90;;;;;;6201274;28;20473;-60
2022/11/11 02:52:20;;;;;;;13.20;12.00;;;5.00;99.90;;;;;;6201318;28;20480;-60
2022/11/11 02:55:25;;;;;;;14.10;12.67;;;4.90;99.90;;;;;;6202157;28;20563;-60
2022/11/11 02:58:28;;;;;;;13.03;11.67;;;4.80;99.90;;;;;;6201667;28;20836;-60
2022/11/11 03:01:31;;;;;;;13.97;11.70;;;4.80;99.90;;;;;;6202044;28;20469;-60
2022/11/11 03:04:36;;;;;;;13.30;12.20;;;4.80;99.90;;;;;;6201745;28;20596;-60
2022/11/11 03:07:39;;;;;;;13.27;12.17;;;4.80;99.90;;;;;;6201321;28;20890;-60
2022/11/11 03:10:44;;;;;;;13.00;11.90;;;4.80;99.90;;;;;;6201578;28;20941;-60
2022/11/11 03:13:47;;;;;;;13.80;12.60;;;4.80;99.90;;;;;;6201353;28;20999;-60
2022/11/11 03:23:33;;;;;;;13.10;11.90;;;4.70;99.90;;;;;;6201007;28;20480;-60
2022/11/11 03:26:38;;;;;;;13.33;12.13;;;4.70;99.90;;;;;;6200952;28;20476;-60
2022/11/11 03:29:42;;;;;;;12.70;11.57;;;4.70;99.90;;;;;;6200965;28;20960;-59
2022/11/11 03:32:45;;;;;;;12.60;11.40;;;4.70;99.90;;;;;;6200975;28;20584;-59
2022/11/11 03:35:48;;;;;;;12.70;11.60;;;4.70;99.90;;;;;;6200658;28;20472;-59
2022/11/11 03:38:50;;;;;;;11.63;10.73;;;4.60;99.90;;;;;;6200740;28;20492;-60
2022/11/11 03:41:54;;;;;;;11.70;10.60;;;4.60;99.90;;;;;;6200913;28;20961;-60
2022/11/11 03:44:58;;;;;;;14.30;12.93;;;4.50;99.90;;;;;;6200938;28;20487;-60
2022/11/11 03:48:01;;;;;;;15.27;13.87;;;4.50;99.90;;;;;;6200659;28;20479;-60
2022/11/11 03:51:04;;;;;;;17.10;14.20;;;4.30;99.90;;;;;;6200602;28;20473;-60
2022/11/11 03:54:07;;;;;;;19.13;13.23;;;4.40;99.90;;;;;;6200536;28;20481;-61
2022/11/11 04:00:33;;;;;;;13.27;12.17;;;4.40;99.90;;;;;;6200742;28;20473;-61
2022/11/11 04:10:23;;;;;;;12.37;11.07;;;4.50;99.90;;;;;;6200156;28;21059;-61
2022/11/11 04:16:48;;;;;;;12.10;11.00;;;4.60;99.90;;;;;;6200115;28;20784;-61
2022/11/11 04:23:15;;;;;;;10.67;9.73;;;4.70;99.90;;;;;;6191463;28;20488;-60
2022/11/11 04:26:17;;;;;;;10.87;9.97;;;4.80;99.90;;;;;;6199900;28;20484;-60
2022/11/11 04:29:30;;;;;;;11.33;9.57;;;4.80;99.90;;;;;;6200264;28;20960;-60
2022/11/11 04:32:38;;;;;;;11.40;10.40;;;4.90;99.90;;;;;;6202021;28;20473;-60
2022/11/11 04:35:41;;;;;;;10.53;9.43;;;4.80;99.90;;;;;;6205379;28;20575;-61
2022/11/11 04:42:05;;;;;;;7.90;7.20;;;4.80;99.90;;;;;;6205098;28;20481;-60
2022/11/11 04:45:29;;;;;;;8.60;6.90;;;4.90;99.90;;;;;;6204796;28;20885;-60
2022/11/11 04:48:33;;;;;;;9.30;7.40;;;4.90;99.90;;;;;;6204994;28;20488;-60
2022/11/11 04:58:11;;;;;;;10.57;6.50;;;4.90;99.90;;;;;;6183007;28;20469;-60
2022/11/11 05:03:14;;;;;;;6.93;6.23;;;4.90;99.90;;;;;;6205192;28;20472;-59
2022/11/11 05:04:37;;;;;;;6.40;5.90;;;4.90;99.90;;;;;;6204861;28;20486;-59
2022/11/11 05:11:01;;;;;;;5.10;4.70;;;4.90;99.90;;;;;;6204542;28;20531;-60
2022/11/11 05:27:30;;;;;;;8.63;7.73;;;5.00;99.90;;;;;;6204003;28;20469;-60
2022/11/11 05:30:34;;;;;;;7.80;6.47;;;5.00;99.90;;;;;;6203912;28;20472;-60
2022/11/11 05:33:39;;;;;;;8.50;7.00;;;5.00;99.90;;;;;;6203627;28;20488;-60
2022/11/11 05:36:42;;;;;;;6.50;5.60;;;5.10;99.90;;;;;;6203703;28;20489;-60
2022/11/11 05:39:45;;;;;;;5.83;5.33;;;5.10;99.90;;;;;;6203100;28;20538;-60
2022/11/11 05:42:48;;;;;;;6.57;5.43;;;5.10;99.90;;;;;;6203356;28;20444;-60
2022/11/11 05:45:56;;;;;;;6.27;5.50;;;5.10;99.90;;;;;;6203390;28;21000;-60
2022/11/11 05:49:15;;;;;;;8.10;6.83;;;5.20;99.90;;;;;;6203589;28;20449;-60
2022/11/11 05:52:19;;;;;;;7.63;6.47;;;5.10;99.90;;;;;;6203193;28;20494;-60
2022/11/11 05:55:22;;;;;;;8.17;6.93;;;5.10;99.90;;;;;;6203833;28;20481;-60
2022/11/11 05:58:25;;;;;;;6.90;5.90;;;5.10;99.90;;;;;;6212194;28;20878;-60
2022/11/11 06:01:28;;;;;;;6.90;6.40;;;5.10;99.90;;;;;;6227555;28;20522;-60
2022/11/11 06:04:34;;;;;;;7.97;7.17;;;5.10;99.90;;;;;;6227504;28;20491;-60
2022/11/11 06:07:39;;;;;;;7.80;7.00;;;5.20;99.90;;;;;;6224464;28;21073;-60
2022/11/11 06:10:43;;;;;;;9.97;7.67;;;5.20;99.90;;;;;;6227532;28;20479;-60
2022/11/11 06:13:46;;;;;;;15.03;10.83;;;5.20;99.90;;;;;;6227347;28;20483;-60
2022/11/11 06:16:49;;;;;;;11.80;10.70;;;5.10;99.90;;;;;;6227646;28;20480;-60
2022/11/11 06:19:54;;;;;;;11.77;10.77;;;5.20;99.90;;;;;;6227320;28;20974;-60
2022/11/11 06:22:57;;;;;;;12.37;11.20;;;5.10;99.90;;;;;;6226956;28;20994;-60
2022/11/11 06:26:12;;;;;;;12.40;11.13;;;5.10;99.90;;;;;;6226831;28;20476;-60
2022/11/11 06:29:16;;;;;;;12.40;11.30;;;5.10;99.90;;;;;;6226992;28;20480;-60
2022/11/11 06:32:19;;;;;;;11.70;10.60;;;5.10;99.90;;;;;;6226466;28;20476;-60
2022/11/11 06:35:23;;;;;;;15.90;14.20;;;5.10;99.90;;;;;;6226740;28;20492;-60
2022/11/11 06:38:26;;;;;;;13.30;11.83;;;5.10;99.90;;;;;;6226315;28;20491;-60
2022/11/11 06:41:29;;;;;;;12.37;11.27;;;5.30;99.90;;;;;;6226309;28;20472;-60
2022/11/11 06:44:32;;;;;;;12.20;11.27;;;5.40;99.90;;;;;;6226460;28;20476;-59
2022/11/11 06:47:35;;;;;;;14.10;11.60;;;5.50;99.90;;;;;;6226509;28;20574;-60
2022/11/11 06:50:40;;;;;;;15.50;14.13;;;5.60;99.90;;;;;;6226283;28;20778;-60
2022/11/11 06:53:43;;;;;;;13.30;12.00;;;5.70;99.90;;;;;;6226507;28;20486;-60
2022/11/11 06:56:48;;;;;;;12.50;11.30;;;5.80;99.90;;;;;;6225417;28;20924;-60
2022/11/11 06:59:51;;;;;;;11.30;10.20;;;5.90;99.90;;;;;;6226102;28;20507;-60
2022/11/11 07:02:55;;;;;;;12.57;11.37;;;6.10;99.90;;;;;;6226097;28;20484;-60
2022/11/11 07:06:02;;;;;;;21.03;16.40;;;6.20;99.90;;;;;;6225708;28;20855;-61
2022/11/11 07:09:05;;;;;;;15.20;11.83;;;6.30;99.90;;;;;;6226039;28;20464;-60
2022/11/11 07:12:08;;;;;;;14.23;12.83;;;6.40;99.90;;;;;;6225862;28;20484;-60
2022/11/11 07:15:12;;;;;;;14.13;11.80;;;6.40;99.90;;;;;;6226243;28;20514;-60
2022/11/11 07:18:15;;;;;;;14.43;12.17;;;6.40;99.90;;;;;;6225877;28;20484;-60
2022/11/11 07:21:19;;;;;;;13.43;11.17;;;6.40;99.90;;;;;;6225575;28;20478;-60
2022/11/11 07:24:22;;;;;;;14.10;12.70;;;6.40;99.90;;;;;;6225086;28;20821;-60
2022/11/11 07:27:25;;;;;;;11.80;10.70;;;6.40;99.90;;;;;;6225714;28;20480;-61
2022/11/11 07:30:29;;;;;;;13.43;12.03;;;6.40;99.90;;;;;;6225404;28;20472;-61
2022/11/11 07:33:32;;;;;;;12.67;11.03;;;6.40;99.90;;;;;;6225301;28;20479;-60
2022/11/11 07:36:36;;;;;;;11.90;10.77;;;6.40;99.90;;;;;;6220955;28;20907;-60
2022/11/11 07:39:40;;;;;;;13.73;11.23;;;6.50;99.90;;;;;;6225331;28;20832;-61
2022/11/11 07:42:43;;;;;;;13.73;12.43;;;6.40;99.90;;;;;;6224945;28;20980;-61
2022/11/11 07:45:46;;;;;;;31.67;28.27;;;6.50;99.90;;;;;;6225324;28;20475;-60
2022/11/11 07:48:50;;;;;;;18.77;16.33;;;6.50;99.90;;;;;;6224992;28;20452;-60
2022/11/11 07:51:54;;;;;;;15.57;14.07;;;6.60;99.90;;;;;;6225141;28;20448;-62
2022/11/11 07:54:57;;;;;;;14.73;13.43;;;6.60;99.90;;;;;;6224823;28;20533;-61
2022/11/11 07:58:01;;;;;;;12.93;11.83;;;6.80;99.90;;;;;;6224615;28;20891;-60
2022/11/11 08:01:04;;;;;;;25.03;20.30;;;7.00;99.90;;;;;;6225233;28;20499;-60
2022/11/11 08:04:11;;;;;;;42.60;23.80;;;7.10;99.90;;;;;;6224393;28;20543;-60
2022/11/11 08:07:15;;;;;;;21.77;17.70;;;7.30;99.90;;;;;;6225094;28;20571;-60
2022/11/11 08:10:25;;;;;;;16.87;14.80;;;7.40;99.90;;;;;;6225123;28;20465;-60
2022/11/11 08:13:42;;;;;;;27.67;22.20;;;7.50;99.90;;;;;;6225186;28;20476;-60
2022/11/11 08:16:46;;;;;;;23.30;18.20;;;7.70;99.90;;;;;;6224534;28;21002;-60
2022/11/11 08:19:49;;;;;;;17.50;15.73;;;7.90;99.90;;;;;;6224589;28;20483;-60
2022/11/11 08:22:55;;;;;;;22.23;18.33;;;8.10;99.90;;;;;;6221361;28;20955;-60
2022/11/11 08:26:19;;;;;;;22.03;17.27;;;8.20;99.90;;;;;;6200196;28;20520;-60
2022/11/11 08:29:31;;;;;;;18.20;16.30;;;8.50;99.90;;;;;;6199901;28;20627;-59
2022/11/11 08:32:34;;;;;;;14.93;13.40;;;8.70;99.90;;;;;;6200033;28;20539;-59
2022/11/11 08:35:37;;;;;;;12.60;11.33;;;8.90;99.90;;;;;;6205563;28;20484;-59
2022/11/11 08:38:41;;;;;;;14.40;12.90;;;9.20;99.90;;;;;;6211259;28;20523;-59
2022/11/11 08:41:44;;;;;;;11.80;10.53;;;9.50;99.90;;;;;;6211340;28;20476;-59
2022/11/11 08:44:48;;;;;;;12.47;10.57;;;9.90;99.90;;;;;;6209960;28;20476;-59
2022/11/11 08:47:51;;;;;;;12.03;10.23;;;10.20;99.90;;;;;;6212021;28;20476;-59
2022/11/11 08:50:54;;;;;;;11.40;10.20;;;10.50;99.90;;;;;;6214487;28;20468;-60
2022/11/11 08:53:59;;;;;;;12.60;11.40;;;10.80;99.90;;;;;;6209762;28;20991;-59
2022/11/11 08:57:02;;;;;;;13.63;12.23;;;11.00;99.90;;;;;;6210374;28;20936;-60
2022/11/11 09:00:06;;;;;;;17.70;14.10;;;11.20;99.90;;;;;;6210681;28;20967;-60
2022/11/11 09:03:11;;;;;;;17.10;14.47;;;11.40;99.90;;;;;;6207520;28;20608;-59
2022/11/11 09:06:15;;;;;;;19.63;17.40;;;11.60;99.90;;;;;;6206831;28;20491;-60
2022/11/11 09:09:19;;;;;;;23.90;21.10;;;11.80;99.90;;;;;;6200217;28;20831;-61
2022/11/11 09:12:23;;;;;;;48.30;38.93;;;12.10;99.90;;;;;;6199938;28;20473;-61
2022/11/11 09:15:26;;;;;;;32.13;24.83;;;12.20;99.90;;;;;;6199429;28;20480;-61
2022/11/11 09:18:31;;;;;;;32.77;25.17;;;12.30;99.90;;;;;;6200657;28;20976;-60
2022/11/11 09:21:34;;;;;;;41.33;32.27;;;11.90;99.90;;;;;;6225892;28;20476;-60
2022/11/11 09:24:39;;;;;;;39.27;31.83;;;11.70;99.90;;;;;;6227658;28;20558;-61
2022/11/11 09:27:42;;;;;;;29.73;25.80;;;11.60;99.90;;;;;;6228517;28;20487;-60
2022/11/11 09:30:45;;;;;;;36.20;25.30;;;11.50;99.90;;;;;;6227879;28;20497;-60
2022/11/11 09:33:48;;;;;;;27.90;25.00;;;11.70;99.90;;;;;;6228025;28;20540;-61
2022/11/11 09:36:51;;;;;;;22.10;19.93;;;11.90;99.90;;;;;;6227687;28;20907;-60
2022/11/11 09:39:56;;;;;;;26.23;21.00;;;12.20;99.90;;;;;;6227442;28;20778;-59
2022/11/11 09:43:09;;;;;;;30.20;20.13;;;12.60;99.90;;;;;;6227591;28;20448;-59
2022/11/11 09:46:33;;;;;;;22.70;19.20;;;13.10;99.90;;;;;;6227562;28;20471;-60
2022/11/11 09:49:51;;;;;;;21.40;19.40;;;13.80;99.90;;;;;;6227693;28;20468;-59
2022/11/11 09:53:00;;;;;;;17.27;15.60;;;14.50;99.90;;;;;;6228145;28;20546;-60
2022/11/11 09:56:09;;;;;;;22.50;15.40;;;15.00;98.90;;;;;;6227892;28;20476;-58
2022/11/11 09:59:41;;;;;;;20.20;16.40;;;15.50;97.70;;;;;;6227742;28;20920;-58
2022/11/11 10:02:50;;;;;;;20.07;15.80;;;16.20;97.00;;;;;;6227944;28;20479;-56
2022/11/11 10:05:59;;;;;;;16.13;14.10;;;16.80;95.50;;;;;;6227175;28;20481;-57
2022/11/11 10:09:11;;;;;;;19.33;14.30;;;17.40;93.60;;;;;;6227103;28;20484;-56
2022/11/11 10:12:16;;;;;;;20.60;17.60;;;18.00;91.90;;;;;;6227263;28;20983;-56
2022/11/11 10:15:20;;;;;;;20.17;17.30;;;18.50;90.40;;;;;;6227004;28;20478;-57
2022/11/11 10:18:36;;;;;;;27.30;19.37;;;18.70;88.60;;;;;;6226741;28;20982;-57
2022/11/11 10:21:44;;;;;;;25.90;18.20;;;18.60;86.60;;;;;;6226757;28;20244;-57
2022/11/11 10:25:22;;;;;;;25.17;17.20;;;18.30;86.70;;;;;;6226086;28;20479;-57
2022/11/11 10:28:30;;;;;;;17.23;15.17;;;17.80;89.00;;;;;;6227049;28;20464;-57
2022/11/11 10:31:34;;;;;;;18.03;12.80;;;17.20;89.60;;;;;;6227008;28;20472;-57
2022/11/11 10:34:38;;;;;;;17.37;13.90;;;17.00;90.10;;;;;;6226578;28;20472;-58
2022/11/11 10:37:42;;;;;;;23.60;17.37;;;16.90;91.00;;;;;;6239915;28;20532;-58
2022/11/11 10:40:49;;;;;;;17.27;15.00;;;16.40;92.00;;;;;;6236430;28;20478;-58
2022/11/11 10:43:54;;;;;;;15.70;13.30;;;16.20;91.80;;;;;;6231878;28;20786;-57
2022/11/11 10:47:04;;;;;;;17.63;14.63;;;15.90;92.50;;;;;;6227130;28;20483;-57
2022/11/11 10:50:14;;;;;;;24.23;15.13;;;15.40;93.40;;;;;;6226912;28;20468;-57
2022/11/11 10:53:22;;;;;;;24.87;20.00;;;15.10;94.00;;;;;;6226633;28;21014;-58
2022/11/11 10:56:33;;;;;;;15.23;13.83;;;14.90;94.60;;;;;;6226743;28;21002;-58
2022/11/11 10:59:43;;;;;;;15.37;13.53;;;14.70;95.00;;;;;;6221746;28;20541;-58
2022/11/11 11:02:56;;;;;;;15.60;13.50;;;14.70;95.70;;;;;;6225582;28;20528;-58
2022/11/11 11:06:06;;;;;;;15.80;13.53;;;14.60;96.10;;;;;;6225619;28;20472;-57
2022/11/11 11:09:15;;;;;;;14.60;12.80;;;14.60;96.50;;;;;;6226063;28;20476;-58
2022/11/11 11:12:24;;;;;;;14.90;13.30;;;14.60;96.80;;;;;;6226075;28;20464;-57
2022/11/11 11:15:31;;;;;;;14.90;13.27;;;14.90;96.90;;;;;;6226152;28;20498;-57
2022/11/11 11:18:35;;;;;;;15.30;13.67;;;15.00;96.60;;;;;;6226508;28;20476;-58
2022/11/11 11:21:53;;;;;;;14.73;12.80;;;14.80;96.40;;;;;;6226643;28;20484;-58
2022/11/11 11:25:10;;;;;;;16.73;13.47;;;14.80;96.60;;;;;;6225630;28;20468;-58
2022/11/11 11:28:13;;;;;;;17.77;12.20;;;14.70;97.00;;;;;;6226631;28;20468;-58
2022/11/11 11:31:34;;;;;;;13.63;12.23;;;14.60;97.10;;;;;;6226538;28;20476;-57
2022/11/11 11:34:47;;;;;;;13.50;11.73;;;14.60;97.10;;;;;;6225695;28;20480;-57
2022/11/11 11:37:51;;;;;;;12.97;11.57;;;14.40;96.80;;;;;;6226037;28;20966;-57
2022/11/11 11:40:56;;;;;;;13.43;12.23;;;14.20;97.10;;;;;;6225714;28;20511;-57
2022/11/11 11:43:59;;;;;;;14.67;12.50;;;14.10;97.80;;;;;;6226073;28;20986;-56
2022/11/11 11:47:29;;;;;;;12.73;11.43;;;14.20;98.10;;;;;;6226217;28;20472;-57
2022/11/11 11:50:42;;;;;;;13.03;11.17;;;14.30;97.90;;;;;;6226226;28;20459;-57
2022/11/11 11:54:00;;;;;;;13.17;11.80;;;14.50;98.20;;;;;;6225740;28;20479;-59
2022/11/11 11:57:11;;;;;;;17.73;11.33;;;14.60;98.00;;;;;;6225713;28;20464;-58
2022/11/11 12:00:18;;;;;;;15.53;11.80;;;14.90;98.20;;;;;;6225670;28;20487;-58
2022/11/11 12:03:57;;;;;;;13.30;12.00;;;15.80;97.50;;;;;;6225639;28;20525;-58
2022/11/11 12:07:11;;;;;;;13.50;11.10;;;17.50;95.40;;;;;;6223932;28;20464;-59
2022/11/11 12:10:28;;;;;;;17.00;12.27;;;19.80;91.70;;;;;;6197869;28;20596;-59
2022/11/11 12:13:47;;;;;;;18.03;12.47;;;22.10;84.30;;;;;;6196860;28;20225;-58
2022/11/11 12:16:54;;;;;;;18.00;12.57;;;24.10;74.00;;;;;;6200335;28;20277;-59
2022/11/11 12:20:08;;;;;;;15.80;14.10;;;25.40;64.30;;;;;;6196335;28;20241;-59
2022/11/11 12:23:42;;;;;;;70.77;63.20;;;26.00;58.00;;;;;;6200528;28;20237;-59
2022/11/11 12:26:53;;;;;;;40.87;36.00;;;26.30;54.50;;;;;;6200823;28;20229;-59
2022/11/11 12:30:04;;;;;;;19.27;16.67;;;26.60;52.00;;;;;;6200763;28;20233;-59
2022/11/11 12:33:32;;;;;;;14.10;12.80;;;26.50;49.60;;;;;;6200748;28;20244;-58
2022/11/11 12:36:44;;;;;;;12.20;11.00;;;26.50;49.50;;;;;;6200854;28;20287;-60
2022/11/11 12:39:59;;;;;;;12.93;10.13;;;27.20;47.30;;;;;;6200844;28;20244;-59
2022/11/11 12:43:14;;;;;;;9.37;8.30;;;27.80;44.40;;;;;;6200460;28;20237;-59
2022/11/11 12:46:27;;;;;;;12.03;9.03;;;28.30;41.90;;;;;;6200808;28;20244;-59
2022/11/11 12:49:42;;;;;;;11.83;10.73;;;28.20;41.60;;;;;;6200996;28;20236;-59
2022/11/11 12:53:06;;;;;;;10.03;9.20;;;27.80;40.40;;;;;;6201018;28;20649;-59
2022/11/11 12:56:24;;;;;;;11.90;9.17;;;26.50;42.00;;;;;;6205713;28;20252;-59
2022/11/11 12:59:38;;;;;;;9.13;8.33;;;25.20;43.90;;;;;;6205801;28;20237;-59
2022/11/11 13:03:03;;;;;;;17.50;16.00;;;24.40;45.50;;;;;;6229173;28;20672;-59
2022/11/11 13:06:21;;;;;;;19.07;17.10;;;23.60;47.50;;;;;;6216773;28;20237;-58
2022/11/11 13:09:36;;;;;;;15.53;13.63;;;23.10;49.50;;;;;;6195823;28;20241;-59
2022/11/11 13:12:44;;;;;;;23.40;20.90;;;22.20;51.30;;;;;;6204195;28;20237;-58
2022/11/11 13:15:48;;;;;;;20.30;18.40;;;21.50;53.00;;;;;;6204186;28;20230;-58
2022/11/11 13:18:57;;;;;;;17.50;15.80;;;21.10;54.80;;;;;;6204363;28;20244;-58
2022/11/11 13:22:07;;;;;;;21.70;19.60;;;22.10;55.00;;;;;;6204812;28;20225;-57
2022/11/11 13:25:18;;;;;;;26.23;18.93;;;24.40;51.60;;;;;;6203872;28;20277;-58
2022/11/11 13:28:29;;;;;;;18.27;16.20;;;24.40;48.60;;;;;;6204747;28;20225;-58
2022/11/11 13:31:36;;;;;;;26.70;20.33;;;23.70;49.40;;;;;;6204679;28;20225;-57
2022/11/11 13:34:41;;;;;;;24.73;18.70;;;22.20;51.80;;;;;;6204477;28;20241;-57
2022/11/11 13:37:45;;;;;;;19.23;16.40;;;21.00;54.80;;;;;;6204527;28;20681;-57
2022/11/11 13:40:53;;;;;;;21.27;19.20;;;20.20;57.10;;;;;;6204615;28;20240;-59
2022/11/11 13:43:59;;;;;;;17.27;15.50;;;19.30;59.30;;;;;;6204464;28;20233;-57
2022/11/11 13:47:05;;;;;;;17.90;13.47;;;18.10;62.40;;;;;;6204424;28;20245;-58
2022/11/11 13:50:13;;;;;;;15.03;12.27;;;17.60;64.90;;;;;;6214790;28;20488;-57
2022/11/11 13:53:27;;;;;;;18.93;15.77;;;17.30;66.70;;;;;;6218219;28;20479;-57
2022/11/11 13:56:38;;;;;;;27.80;19.47;;;17.00;68.10;;;;;;6228379;28;20480;-57
2022/11/11 13:59:44;;;;;;;18.17;13.27;;;16.70;70.60;;;;;;6228408;28;20479;-57
2022/11/11 14:02:47;;;;;;;22.13;14.03;;;16.10;73.50;;;;;;6228305;28;20483;-57
2022/11/11 14:06:25;;;;;;;17.27;13.60;;;15.80;76.40;;;;;;6216736;28;20843;-57
2022/11/11 14:09:57;;;;;;;16.77;14.97;;;15.40;79.00;;;;;;6202567;28;20472;-57
2022/11/11 14:13:38;;;;;;;17.43;15.70;;;15.10;82.20;;;;;;6208683;28;20473;-57
2022/11/11 14:17:01;;;;;;;21.57;19.40;;;14.80;85.10;;;;;;6203764;28;20484;-57
2022/11/11 14:20:36;;;;;;;18.57;16.77;;;14.60;87.20;;;;;;6216147;28;20480;-57
2022/11/11 14:23:41;;;;;;;19.13;17.23;;;14.50;89.60;;;;;;6227265;28;20473;-57
2022/11/11 14:26:58;;;;;;;20.30;16.77;;;14.20;90.90;;;;;;6203271;28;20477;-57
2022/11/11 14:30:03;;;;;;;16.37;14.70;;;14.00;92.40;;;;;;6203345;28;20527;-57
2022/11/11 14:33:15;;;;;;;22.63;14.40;;;13.60;93.30;;;;;;6202682;28;20469;-57
2022/11/11 14:36:24;;;;;;;15.27;13.27;;;13.60;94.00;;;;;;6203075;28;20473;-57
2022/11/11 14:39:38;;;;;;;14.70;13.30;;;13.50;94.80;;;;;;6202914;28;20473;-57
2022/11/11 14:42:47;;;;;;;14.90;12.83;;;13.40;95.80;;;;;;6203055;28;20495;-57
2022/11/11 14:46:01;;;;;;;15.80;11.10;;;13.20;96.70;;;;;;6203033;28;20760;-57
2022/11/11 14:49:04;;;;;;;16.30;11.90;;;13.10;97.60;;;;;;6203091;28;20441;-57
2022/11/11 14:52:21;;;;;;;14.73;11.57;;;12.80;98.60;;;;;;6202986;28;20480;-58
2022/11/11 14:55:28;;;;;;;11.33;10.10;;;12.70;99.40;;;;;;6202498;28;20560;-57
2022/11/11 14:58:35;;;;;;;14.80;12.03;;;12.70;99.90;;;;;;6202256;28;20844;-57
2022/11/11 15:01:39;;;;;;;13.70;10.70;;;12.50;99.90;;;;;;6202492;28;20480;-57
2022/11/11 15:04:43;;;;;;;15.13;11.40;;;12.40;99.90;;;;;;6199367;28;20477;-56
2022/11/11 15:08:10;;;;;;;13.60;11.67;;;12.40;99.90;;;;;;6188001;28;20858;-57
2022/11/11 15:11:27;;;;;;;15.53;12.00;;;12.30;99.90;;;;;;6185850;28;20549;-57
2022/11/11 15:14:40;;;;;;;13.33;10.70;;;12.30;99.90;;;;;;6175935;28;20486;-57
2022/11/11 15:17:56;;;;;;;12.13;10.77;;;12.20;99.90;;;;;;6173603;28;20482;-57
2022/11/11 15:21:07;;;;;;;12.97;10.20;;;12.10;99.90;;;;;;6186838;28;20501;-56
2022/11/11 15:24:24;;;;;;;14.10;10.80;;;12.00;99.90;;;;;;6200794;28;20483;-56
2022/11/11 15:27:35;;;;;;;15.53;11.20;;;11.90;99.90;;;;;;6225822;28;20468;-56
2022/11/11 15:30:51;;;;;;;13.20;11.87;;;11.80;99.90;;;;;;6225752;28;20836;-57
2022/11/11 15:34:05;;;;;;;16.93;13.50;;;11.60;99.90;;;;;;6212875;28;20479;-58
2022/11/11 15:37:12;;;;;;;13.07;11.67;;;11.60;99.90;;;;;;6221306;28;20440;-60
2022/11/11 15:40:20;;;;;;;16.80;12.63;;;11.50;99.90;;;;;;6213748;28;20476;-61
2022/11/11 15:43:27;;;;;;;14.90;13.07;;;11.40;99.90;;;;;;6217621;28;20486;-60
2022/11/11 15:46:36;;;;;;;13.87;12.40;;;11.40;99.90;;;;;;6224088;28;20530;-60
2022/11/11 15:49:42;;;;;;;17.47;14.00;;;11.30;99.90;;;;;;6216854;28;20476;-59
2022/11/11 15:52:46;;;;;;;18.40;14.97;;;11.30;99.90;;;;;;6225285;28;20814;-59
2022/11/11 15:55:54;;;;;;;19.90;16.20;;;11.20;99.90;;;;;;6225521;28;20801;-59
2022/11/11 15:58:57;;;;;;;21.37;17.70;;;11.20;99.90;;;;;;6224982;28;20471;-60
2022/11/11 16:02:07;;;;;;;21.33;16.57;;;11.10;99.90;;;;;;6224922;28;20476;-62
2022/11/11 16:05:20;;;;;;;22.00;15.53;;;11.10;99.90;;;;;;6219205;28;20834;-61
2022/11/11 16:08:23;;;;;;;18.70;14.17;;;11.00;99.90;;;;;;6200545;28;20849;-60
2022/11/11 16:11:27;;;;;;;19.40;16.30;;;10.90;99.90;;;;;;6200641;28;20480;-61
2022/11/11 16:14:35;;;;;;;16.73;14.00;;;10.90;99.90;;;;;;6201159;28;20469;-63
2022/11/11 16:17:42;;;;;;;20.27;17.13;;;10.80;99.90;;;;;;6191673;28;20496;-60
2022/11/11 16:20:51;;;;;;;18.70;16.33;;;10.70;99.90;;;;;;6200603;28;20488;-61
2022/11/11 16:23:55;;;;;;;19.00;15.93;;;10.60;99.90;;;;;;6219265;28;20480;-61
2022/11/11 16:27:01;;;;;;;21.60;16.57;;;10.60;99.90;;;;;;6207871;28;20500;-61
2022/11/11 16:30:28;;;;;;;17.27;15.40;;;10.40;99.90;;;;;;6208052;28;20988;-61
2022/11/11 16:33:35;;;;;;;24.17;17.10;;;10.40;99.90;;;;;;6208267;28;20480;-61
2022/11/11 16:36:58;;;;;;;23.57;20.90;;;10.40;99.90;;;;;;6208334;28;20477;-61
2022/11/11 16:40:27;;;;;;;28.63;22.87;;;10.30;99.90;;;;;;6208148;28;20461;-61
2022/11/11 16:43:32;;;;;;;21.57;18.90;;;10.20;99.90;;;;;;6208127;28;20774;-61
2022/11/11 16:46:41;;;;;;;20.70;18.70;;;10.20;99.90;;;;;;6208163;28;20480;-61
2022/11/11 16:49:44;;;;;;;20.97;18.63;;;10.10;99.90;;;;;;6208342;28;20812;-61
2022/11/11 16:52:53;;;;;;;23.03;17.97;;;10.10;99.90;;;;;;6208153;28;20468;-61
2022/11/11 16:55:57;;;;;;;20.87;18.67;;;10.00;99.90;;;;;;6208494;28;20476;-62
2022/11/11 16:59:05;;;;;;;20.67;16.87;;;9.90;99.90;;;;;;6207929;28;20854;-62
2022/11/11 17:02:16;;;;;;;18.10;16.23;;;9.90;99.90;;;;;;6208337;28;20484;-61
2022/11/11 17:05:36;;;;;;;16.87;15.07;;;9.80;99.90;;;;;;6207430;28;20800;-61
2022/11/11 17:08:42;;;;;;;22.80;18.47;;;9.80;99.90;;;;;;6208322;28;20556;-61
2022/11/11 17:11:46;;;;;;;22.73;16.30;;;9.70;99.90;;;;;;6207894;28;20480;-61
2022/11/11 17:14:49;;;;;;;19.03;15.50;;;9.70;99.90;;;;;;6208075;28;20484;-61